sensor_id;sensor_type;location;lat;lon;timestamp;P1;durP1;ratioP1;P2;durP2;ratioP2
17832;SDS011;9041;49.718;21.798;2024-02-14T00:00:41;15.47;;;7.20;;
17832;SDS011;9041;49.718;21.798;2024-02-14T00:03:08;15.03;;;7.03;;
17832;SDS011;9041;49.718;21.798;2024-02-14T00:05:35;14.20;;;6.87;;
17832;SDS011;9041;49.718;21.798;2024-02-14T00:08:02;18.73;;;7.50;;
17832;SDS011;9041;49.718;21.798;2024-02-14T00:10:29;18.60;;;7.07;;
17832;SDS011;9041;49.718;21.798;2024-02-14T00:12:55;19.00;;;7.13;;
17832;SDS011;9041;49.718;21.798;2024-02-14T00:15:22;15.07;;;6.50;;
17832;SDS011;9041;49.718;21.798;2024-02-14T00:17:51;14.80;;;6.77;;
17832;SDS011;9041;49.718;21.798;2024-02-14T00:20:18;14.17;;;6.40;;
17832;SDS011;9041;49.718;21.798;2024-02-14T00:22:45;23.17;;;6.50;;
17832;SDS011;9041;49.718;21.798;2024-02-14T00:25:11;13.13;;;6.13;;
17832;SDS011;9041;49.718;21.798;2024-02-14T00:27:38;13.83;;;6.17;;
17832;SDS011;9041;49.718;21.798;2024-02-14T00:30:06;16.70;;;6.00;;
17832;SDS011;9041;49.718;21.798;2024-02-14T00:32:33;12.70;;;5.80;;
17832;SDS011;9041;49.718;21.798;2024-02-14T00:35:01;11.60;;;5.83;;
17832;SDS011;9041;49.718;21.798;2024-02-14T00:37:28;14.60;;;6.13;;
17832;SDS011;9041;49.718;21.798;2024-02-14T00:39:54;14.80;;;6.33;;
17832;SDS011;9041;49.718;21.798;2024-02-14T00:42:23;16.17;;;6.33;;
17832;SDS011;9041;49.718;21.798;2024-02-14T00:44:49;14.53;;;6.70;;
17832;SDS011;9041;49.718;21.798;2024-02-14T00:47:16;14.20;;;6.23;;
17832;SDS011;9041;49.718;21.798;2024-02-14T00:49:43;13.53;;;5.97;;
17832;SDS011;9041;49.718;21.798;2024-02-14T00:52:11;12.70;;;5.90;;
17832;SDS011;9041;49.718;21.798;2024-02-14T00:54:37;13.23;;;6.17;;
17832;SDS011;9041;49.718;21.798;2024-02-14T00:57:04;11.87;;;5.37;;
17832;SDS011;9041;49.718;21.798;2024-02-14T00:59:31;12.83;;;5.73;;
17832;SDS011;9041;49.718;21.798;2024-02-14T01:01:57;16.73;;;6.40;;
17832;SDS011;9041;49.718;21.798;2024-02-14T01:04:24;15.90;;;6.63;;
17832;SDS011;9041;49.718;21.798;2024-02-14T01:06:51;16.57;;;6.50;;
17832;SDS011;9041;49.718;21.798;2024-02-14T01:09:19;12.50;;;6.37;;
17832;SDS011;9041;49.718;21.798;2024-02-14T01:11:46;16.27;;;6.50;;
17832;SDS011;9041;49.718;21.798;2024-02-14T01:14:13;15.07;;;6.70;;
17832;SDS011;9041;49.718;21.798;2024-02-14T01:16:43;14.13;;;6.20;;
17832;SDS011;9041;49.718;21.798;2024-02-14T01:19:10;13.07;;;6.23;;
17832;SDS011;9041;49.718;21.798;2024-02-14T01:21:37;11.30;;;5.57;;
17832;SDS011;9041;49.718;21.798;2024-02-14T01:24:04;13.97;;;6.10;;
17832;SDS011;9041;49.718;21.798;2024-02-14T01:26:34;17.80;;;6.47;;
17832;SDS011;9041;49.718;21.798;2024-02-14T01:29:01;16.43;;;6.13;;
17832;SDS011;9041;49.718;21.798;2024-02-14T01:31:27;14.00;;;5.80;;
17832;SDS011;9041;49.718;21.798;2024-02-14T01:33:55;17.20;;;6.17;;
17832;SDS011;9041;49.718;21.798;2024-02-14T01:36:22;13.40;;;6.43;;
17832;SDS011;9041;49.718;21.798;2024-02-14T01:38:49;13.97;;;5.97;;
17832;SDS011;9041;49.718;21.798;2024-02-14T01:41:15;13.70;;;6.10;;
17832;SDS011;9041;49.718;21.798;2024-02-14T01:43:43;13.80;;;6.33;;
17832;SDS011;9041;49.718;21.798;2024-02-14T01:46:10;12.43;;;5.67;;
17832;SDS011;9041;49.718;21.798;2024-02-14T01:48:37;16.43;;;6.33;;
17832;SDS011;9041;49.718;21.798;2024-02-14T01:51:05;12.70;;;5.87;;
17832;SDS011;9041;49.718;21.798;2024-02-14T01:53:33;17.90;;;6.50;;
17832;SDS011;9041;49.718;21.798;2024-02-14T01:56:01;14.17;;;5.50;;
17832;SDS011;9041;49.718;21.798;2024-02-14T01:58:29;12.87;;;5.93;;
17832;SDS011;9041;49.718;21.798;2024-02-14T02:00:57;14.57;;;5.57;;
17832;SDS011;9041;49.718;21.798;2024-02-14T02:03:25;15.13;;;6.03;;
17832;SDS011;9041;49.718;21.798;2024-02-14T02:05:52;14.17;;;6.33;;
17832;SDS011;9041;49.718;21.798;2024-02-14T02:08:20;16.73;;;6.00;;
17832;SDS011;9041;49.718;21.798;2024-02-14T02:10:46;15.70;;;5.57;;
17832;SDS011;9041;49.718;21.798;2024-02-14T02:13:13;11.40;;;5.33;;
17832;SDS011;9041;49.718;21.798;2024-02-14T02:15:40;13.37;;;5.50;;
17832;SDS011;9041;49.718;21.798;2024-02-14T02:18:11;13.43;;;5.80;;
17832;SDS011;9041;49.718;21.798;2024-02-14T02:20:38;21.70;;;6.70;;
17832;SDS011;9041;49.718;21.798;2024-02-14T02:23:08;12.30;;;5.60;;
17832;SDS011;9041;49.718;21.798;2024-02-14T02:25:37;12.93;;;5.33;;
17832;SDS011;9041;49.718;21.798;2024-02-14T02:28:04;14.00;;;5.30;;
17832;SDS011;9041;49.718;21.798;2024-02-14T02:30:31;13.00;;;5.60;;
17832;SDS011;9041;49.718;21.798;2024-02-14T02:33:00;12.80;;;6.07;;
17832;SDS011;9041;49.718;21.798;2024-02-14T02:35:27;14.87;;;6.47;;
17832;SDS011;9041;49.718;21.798;2024-02-14T02:37:54;13.13;;;5.90;;
17832;SDS011;9041;49.718;21.798;2024-02-14T02:40:22;14.27;;;5.70;;
17832;SDS011;9041;49.718;21.798;2024-02-14T02:42:49;12.93;;;5.47;;
17832;SDS011;9041;49.718;21.798;2024-02-14T02:45:15;9.77;;;5.33;;
17832;SDS011;9041;49.718;21.798;2024-02-14T02:47:42;15.77;;;5.70;;
17832;SDS011;9041;49.718;21.798;2024-02-14T02:50:09;13.90;;;6.10;;
17832;SDS011;9041;49.718;21.798;2024-02-14T02:52:36;14.57;;;5.77;;
17832;SDS011;9041;49.718;21.798;2024-02-14T02:55:03;12.50;;;5.70;;
17832;SDS011;9041;49.718;21.798;2024-02-14T02:57:32;12.23;;;5.87;;
17832;SDS011;9041;49.718;21.798;2024-02-14T03:00:01;12.10;;;6.77;;
17832;SDS011;9041;49.718;21.798;2024-02-14T03:02:30;15.40;;;6.37;;
17832;SDS011;9041;49.718;21.798;2024-02-14T03:04:57;15.00;;;5.90;;
17832;SDS011;9041;49.718;21.798;2024-02-14T03:07:24;12.23;;;5.70;;
17832;SDS011;9041;49.718;21.798;2024-02-14T03:09:50;14.93;;;5.83;;
17832;SDS011;9041;49.718;21.798;2024-02-14T03:12:17;12.73;;;6.00;;
17832;SDS011;9041;49.718;21.798;2024-02-14T03:14:45;12.27;;;5.60;;
17832;SDS011;9041;49.718;21.798;2024-02-14T03:17:11;14.27;;;6.50;;
17832;SDS011;9041;49.718;21.798;2024-02-14T03:19:39;12.90;;;6.17;;
17832;SDS011;9041;49.718;21.798;2024-02-14T03:22:06;10.80;;;5.17;;
17832;SDS011;9041;49.718;21.798;2024-02-14T03:24:34;11.00;;;5.70;;
17832;SDS011;9041;49.718;21.798;2024-02-14T03:27:02;9.77;;;5.10;;
17832;SDS011;9041;49.718;21.798;2024-02-14T03:29:30;12.17;;;5.80;;
17832;SDS011;9041;49.718;21.798;2024-02-14T03:31:59;15.53;;;5.23;;
17832;SDS011;9041;49.718;21.798;2024-02-14T03:34:29;14.63;;;5.90;;
17832;SDS011;9041;49.718;21.798;2024-02-14T03:36:58;15.97;;;5.60;;
17832;SDS011;9041;49.718;21.798;2024-02-14T03:39:25;14.37;;;5.90;;
17832;SDS011;9041;49.718;21.798;2024-02-14T03:41:51;13.77;;;6.00;;
17832;SDS011;9041;49.718;21.798;2024-02-14T03:44:19;12.13;;;5.67;;
17832;SDS011;9041;49.718;21.798;2024-02-14T03:46:46;15.67;;;5.73;;
17832;SDS011;9041;49.718;21.798;2024-02-14T03:49:15;15.07;;;5.90;;
17832;SDS011;9041;49.718;21.798;2024-02-14T03:51:41;12.80;;;5.37;;
17832;SDS011;9041;49.718;21.798;2024-02-14T03:54:08;21.03;;;6.00;;
17832;SDS011;9041;49.718;21.798;2024-02-14T03:56:36;11.47;;;5.03;;
17832;SDS011;9041;49.718;21.798;2024-02-14T03:59:03;12.67;;;5.30;;
17832;SDS011;9041;49.718;21.798;2024-02-14T04:01:30;13.23;;;5.67;;
17832;SDS011;9041;49.718;21.798;2024-02-14T04:03:57;10.83;;;5.50;;
17832;SDS011;9041;49.718;21.798;2024-02-14T04:06:26;12.47;;;5.57;;
17832;SDS011;9041;49.718;21.798;2024-02-14T04:08:53;13.60;;;5.47;;
17832;SDS011;9041;49.718;21.798;2024-02-14T04:11:19;12.47;;;6.20;;
17832;SDS011;9041;49.718;21.798;2024-02-14T04:13:46;13.67;;;5.47;;
17832;SDS011;9041;49.718;21.798;2024-02-14T04:16:12;15.23;;;5.93;;
17832;SDS011;9041;49.718;21.798;2024-02-14T04:18:39;13.80;;;5.80;;
17832;SDS011;9041;49.718;21.798;2024-02-14T04:21:07;17.63;;;6.00;;
17832;SDS011;9041;49.718;21.798;2024-02-14T04:23:35;12.07;;;5.87;;
17832;SDS011;9041;49.718;21.798;2024-02-14T04:26:02;16.73;;;5.50;;
17832;SDS011;9041;49.718;21.798;2024-02-14T04:28:28;12.30;;;5.27;;
17832;SDS011;9041;49.718;21.798;2024-02-14T04:30:55;13.30;;;5.53;;
17832;SDS011;9041;49.718;21.798;2024-02-14T04:33:22;11.73;;;4.70;;
17832;SDS011;9041;49.718;21.798;2024-02-14T04:35:50;10.83;;;5.40;;
17832;SDS011;9041;49.718;21.798;2024-02-14T04:38:17;9.50;;;5.07;;
17832;SDS011;9041;49.718;21.798;2024-02-14T04:40:46;14.27;;;5.87;;
17832;SDS011;9041;49.718;21.798;2024-02-14T04:43:13;11.70;;;5.50;;
17832;SDS011;9041;49.718;21.798;2024-02-14T04:45:39;13.20;;;5.40;;
17832;SDS011;9041;49.718;21.798;2024-02-14T04:48:07;13.80;;;5.40;;
17832;SDS011;9041;49.718;21.798;2024-02-14T04:50:34;11.17;;;5.30;;
17832;SDS011;9041;49.718;21.798;2024-02-14T04:53:00;13.30;;;5.57;;
17832;SDS011;9041;49.718;21.798;2024-02-14T04:55:26;10.73;;;5.50;;
17832;SDS011;9041;49.718;21.798;2024-02-14T04:57:55;13.93;;;6.03;;
17832;SDS011;9041;49.718;21.798;2024-02-14T05:00:22;13.67;;;5.53;;
17832;SDS011;9041;49.718;21.798;2024-02-14T05:02:49;12.47;;;5.30;;
17832;SDS011;9041;49.718;21.798;2024-02-14T05:05:16;11.50;;;4.80;;
17832;SDS011;9041;49.718;21.798;2024-02-14T05:07:43;15.67;;;5.80;;
17832;SDS011;9041;49.718;21.798;2024-02-14T05:10:10;17.10;;;5.53;;
17832;SDS011;9041;49.718;21.798;2024-02-14T05:12:36;13.17;;;5.83;;
17832;SDS011;9041;49.718;21.798;2024-02-14T05:15:05;13.10;;;5.37;;
17832;SDS011;9041;49.718;21.798;2024-02-14T05:17:32;14.17;;;4.97;;
17832;SDS011;9041;49.718;21.798;2024-02-14T05:19:59;15.80;;;5.67;;
17832;SDS011;9041;49.718;21.798;2024-02-14T05:22:26;14.93;;;5.77;;
17832;SDS011;9041;49.718;21.798;2024-02-14T05:24:52;14.00;;;6.03;;
17832;SDS011;9041;49.718;21.798;2024-02-14T05:27:19;15.60;;;5.73;;
17832;SDS011;9041;49.718;21.798;2024-02-14T05:29:46;15.80;;;5.60;;
17832;SDS011;9041;49.718;21.798;2024-02-14T05:32:14;14.00;;;5.63;;
17832;SDS011;9041;49.718;21.798;2024-02-14T05:34:43;10.43;;;5.17;;
17832;SDS011;9041;49.718;21.798;2024-02-14T05:37:10;11.27;;;5.47;;
17832;SDS011;9041;49.718;21.798;2024-02-14T05:39:36;10.53;;;4.80;;
17832;SDS011;9041;49.718;21.798;2024-02-14T05:42:03;12.20;;;4.77;;
17832;SDS011;9041;49.718;21.798;2024-02-14T05:44:31;15.37;;;5.17;;
17832;SDS011;9041;49.718;21.798;2024-02-14T05:46:57;11.90;;;5.43;;
17832;SDS011;9041;49.718;21.798;2024-02-14T05:49:26;15.40;;;5.50;;
17832;SDS011;9041;49.718;21.798;2024-02-14T05:51:53;12.37;;;5.57;;
17832;SDS011;9041;49.718;21.798;2024-02-14T05:54:20;11.50;;;5.07;;
17832;SDS011;9041;49.718;21.798;2024-02-14T05:56:46;16.50;;;6.17;;
17832;SDS011;9041;49.718;21.798;2024-02-14T05:59:13;14.20;;;6.53;;
17832;SDS011;9041;49.718;21.798;2024-02-14T06:01:40;25.03;;;8.10;;
17832;SDS011;9041;49.718;21.798;2024-02-14T06:04:06;21.50;;;8.27;;
17832;SDS011;9041;49.718;21.798;2024-02-14T06:06:35;18.93;;;7.87;;
17832;SDS011;9041;49.718;21.798;2024-02-14T06:09:01;20.00;;;7.90;;
17832;SDS011;9041;49.718;21.798;2024-02-14T06:11:34;28.77;;;8.37;;
17832;SDS011;9041;49.718;21.798;2024-02-14T06:14:01;24.47;;;8.47;;
17832;SDS011;9041;49.718;21.798;2024-02-14T06:16:28;18.30;;;7.63;;
17832;SDS011;9041;49.718;21.798;2024-02-14T06:18:54;17.43;;;6.40;;
17832;SDS011;9041;49.718;21.798;2024-02-14T06:21:21;17.30;;;6.47;;
17832;SDS011;9041;49.718;21.798;2024-02-14T06:23:49;17.60;;;6.60;;
17832;SDS011;9041;49.718;21.798;2024-02-14T06:26:16;14.80;;;6.17;;
17832;SDS011;9041;49.718;21.798;2024-02-14T06:28:43;18.40;;;6.17;;
17832;SDS011;9041;49.718;21.798;2024-02-14T06:31:10;12.87;;;5.97;;
17832;SDS011;9041;49.718;21.798;2024-02-14T06:33:37;15.87;;;6.90;;
17832;SDS011;9041;49.718;21.798;2024-02-14T06:36:05;17.53;;;6.53;;
17832;SDS011;9041;49.718;21.798;2024-02-14T06:38:31;18.27;;;7.10;;
17832;SDS011;9041;49.718;21.798;2024-02-14T06:40:59;17.53;;;7.10;;
17832;SDS011;9041;49.718;21.798;2024-02-14T06:43:26;13.30;;;6.93;;
17832;SDS011;9041;49.718;21.798;2024-02-14T06:45:55;19.27;;;6.97;;
17832;SDS011;9041;49.718;21.798;2024-02-14T06:48:22;12.27;;;6.27;;
17832;SDS011;9041;49.718;21.798;2024-02-14T06:50:49;16.53;;;6.17;;
17832;SDS011;9041;49.718;21.798;2024-02-14T06:53:17;14.10;;;5.70;;
17832;SDS011;9041;49.718;21.798;2024-02-14T06:55:43;14.73;;;6.07;;
17832;SDS011;9041;49.718;21.798;2024-02-14T06:58:11;17.93;;;6.47;;
17832;SDS011;9041;49.718;21.798;2024-02-14T07:00:38;20.33;;;6.73;;
17832;SDS011;9041;49.718;21.798;2024-02-14T07:03:05;16.30;;;6.47;;
17832;SDS011;9041;49.718;21.798;2024-02-14T07:05:31;15.47;;;7.27;;
17832;SDS011;9041;49.718;21.798;2024-02-14T07:07:58;18.50;;;7.73;;
17832;SDS011;9041;49.718;21.798;2024-02-14T07:10:24;23.93;;;8.17;;
17832;SDS011;9041;49.718;21.798;2024-02-14T07:12:51;31.93;;;9.90;;
17832;SDS011;9041;49.718;21.798;2024-02-14T07:15:19;23.97;;;10.30;;
17832;SDS011;9041;49.718;21.798;2024-02-14T07:17:46;36.00;;;14.40;;
17832;SDS011;9041;49.718;21.798;2024-02-14T07:20:12;24.63;;;10.27;;
17832;SDS011;9041;49.718;21.798;2024-02-14T07:22:40;20.23;;;8.60;;
17832;SDS011;9041;49.718;21.798;2024-02-14T07:25:08;25.43;;;8.73;;
17832;SDS011;9041;49.718;21.798;2024-02-14T07:27:34;19.93;;;8.70;;
17832;SDS011;9041;49.718;21.798;2024-02-14T07:30:01;18.23;;;8.10;;
17832;SDS011;9041;49.718;21.798;2024-02-14T07:32:29;20.17;;;8.17;;
17832;SDS011;9041;49.718;21.798;2024-02-14T07:34:55;20.53;;;8.43;;
17832;SDS011;9041;49.718;21.798;2024-02-14T07:37:22;23.23;;;8.07;;
17832;SDS011;9041;49.718;21.798;2024-02-14T07:39:48;23.03;;;7.40;;
17832;SDS011;9041;49.718;21.798;2024-02-14T07:42:15;21.70;;;8.10;;
17832;SDS011;9041;49.718;21.798;2024-02-14T07:44:41;22.97;;;9.07;;
17832;SDS011;9041;49.718;21.798;2024-02-14T07:47:08;19.80;;;8.50;;
17832;SDS011;9041;49.718;21.798;2024-02-14T07:49:36;21.27;;;8.90;;
17832;SDS011;9041;49.718;21.798;2024-02-14T07:52:03;18.70;;;7.67;;
17832;SDS011;9041;49.718;21.798;2024-02-14T07:54:30;17.43;;;7.87;;
17832;SDS011;9041;49.718;21.798;2024-02-14T07:56:57;21.03;;;8.27;;
17832;SDS011;9041;49.718;21.798;2024-02-14T07:59:23;24.97;;;9.43;;
17832;SDS011;9041;49.718;21.798;2024-02-14T08:01:50;20.57;;;8.07;;
17832;SDS011;9041;49.718;21.798;2024-02-14T08:04:17;26.03;;;8.23;;
17832;SDS011;9041;49.718;21.798;2024-02-14T08:06:45;24.70;;;8.40;;
17832;SDS011;9041;49.718;21.798;2024-02-14T08:09:14;19.80;;;8.17;;
17832;SDS011;9041;49.718;21.798;2024-02-14T08:11:40;20.50;;;7.83;;
17832;SDS011;9041;49.718;21.798;2024-02-14T08:14:07;21.47;;;8.00;;
17832;SDS011;9041;49.718;21.798;2024-02-14T08:16:33;24.00;;;7.50;;
17832;SDS011;9041;49.718;21.798;2024-02-14T08:19:01;25.50;;;8.30;;
17832;SDS011;9041;49.718;21.798;2024-02-14T08:21:28;18.67;;;7.67;;
17832;SDS011;9041;49.718;21.798;2024-02-14T08:23:56;24.47;;;8.63;;
17832;SDS011;9041;49.718;21.798;2024-02-14T08:26:23;19.83;;;8.00;;
17832;SDS011;9041;49.718;21.798;2024-02-14T08:28:50;19.50;;;8.07;;
17832;SDS011;9041;49.718;21.798;2024-02-14T08:31:17;23.87;;;8.00;;
17832;SDS011;9041;49.718;21.798;2024-02-14T08:33:43;20.53;;;7.80;;
17832;SDS011;9041;49.718;21.798;2024-02-14T08:36:10;19.63;;;8.00;;
17832;SDS011;9041;49.718;21.798;2024-02-14T08:38:36;21.57;;;8.40;;
17832;SDS011;9041;49.718;21.798;2024-02-14T08:41:04;21.27;;;7.97;;
17832;SDS011;9041;49.718;21.798;2024-02-14T08:43:33;18.97;;;8.43;;
17832;SDS011;9041;49.718;21.798;2024-02-14T08:46:00;23.50;;;8.63;;
17832;SDS011;9041;49.718;21.798;2024-02-14T08:48:27;21.23;;;8.37;;
17832;SDS011;9041;49.718;21.798;2024-02-14T08:50:58;20.47;;;9.30;;
17832;SDS011;9041;49.718;21.798;2024-02-14T08:53:25;20.53;;;7.70;;
17832;SDS011;9041;49.718;21.798;2024-02-14T08:55:52;21.70;;;8.30;;
17832;SDS011;9041;49.718;21.798;2024-02-14T08:58:20;20.83;;;7.60;;
17832;SDS011;9041;49.718;21.798;2024-02-14T09:00:47;23.70;;;7.53;;
17832;SDS011;9041;49.718;21.798;2024-02-14T09:03:14;18.10;;;8.27;;
17832;SDS011;9041;49.718;21.798;2024-02-14T09:05:40;21.10;;;8.13;;
17832;SDS011;9041;49.718;21.798;2024-02-14T09:08:07;19.80;;;7.43;;
17832;SDS011;9041;49.718;21.798;2024-02-14T09:10:34;18.43;;;7.87;;
17832;SDS011;9041;49.718;21.798;2024-02-14T09:13:01;21.57;;;7.90;;
17832;SDS011;9041;49.718;21.798;2024-02-14T09:15:30;13.70;;;6.80;;
17832;SDS011;9041;49.718;21.798;2024-02-14T09:17:58;20.33;;;6.17;;
17832;SDS011;9041;49.718;21.798;2024-02-14T09:20:25;8.50;;;4.27;;
17832;SDS011;9041;49.718;21.798;2024-02-14T09:22:51;14.33;;;5.63;;
17832;SDS011;9041;49.718;21.798;2024-02-14T09:25:18;10.57;;;4.10;;
17832;SDS011;9041;49.718;21.798;2024-02-14T09:27:48;8.13;;;3.63;;
17832;SDS011;9041;49.718;21.798;2024-02-14T09:30:14;7.93;;;4.80;;
17832;SDS011;9041;49.718;21.798;2024-02-14T09:32:44;8.77;;;2.73;;
17832;SDS011;9041;49.718;21.798;2024-02-14T09:35:10;4.23;;;1.87;;
17832;SDS011;9041;49.718;21.798;2024-02-14T09:37:37;3.97;;;2.10;;
17832;SDS011;9041;49.718;21.798;2024-02-14T09:40:04;8.53;;;3.50;;
17832;SDS011;9041;49.718;21.798;2024-02-14T09:42:33;4.03;;;2.63;;
17832;SDS011;9041;49.718;21.798;2024-02-14T09:45:05;5.47;;;2.13;;
17832;SDS011;9041;49.718;21.798;2024-02-14T09:47:33;4.10;;;2.30;;
17832;SDS011;9041;49.718;21.798;2024-02-14T09:50:02;9.40;;;2.83;;
17832;SDS011;9041;49.718;21.798;2024-02-14T09:52:31;4.17;;;2.30;;
17832;SDS011;9041;49.718;21.798;2024-02-14T09:54:59;3.60;;;2.00;;
17832;SDS011;9041;49.718;21.798;2024-02-14T09:57:27;5.93;;;2.87;;
17832;SDS011;9041;49.718;21.798;2024-02-14T09:59:55;1.97;;;1.80;;
17832;SDS011;9041;49.718;21.798;2024-02-14T10:02:23;6.10;;;2.30;;
17832;SDS011;9041;49.718;21.798;2024-02-14T10:04:50;7.27;;;2.87;;
17832;SDS011;9041;49.718;21.798;2024-02-14T10:07:18;5.27;;;2.80;;
17832;SDS011;9041;49.718;21.798;2024-02-14T10:09:52;9.00;;;2.87;;
17832;SDS011;9041;49.718;21.798;2024-02-14T10:12:19;8.33;;;3.33;;
17832;SDS011;9041;49.718;21.798;2024-02-14T10:14:46;2.40;;;1.70;;
17832;SDS011;9041;49.718;21.798;2024-02-14T10:17:19;9.53;;;2.67;;
17832;SDS011;9041;49.718;21.798;2024-02-14T10:19:54;5.07;;;1.80;;
17832;SDS011;9041;49.718;21.798;2024-02-14T10:22:23;11.23;;;2.40;;
17832;SDS011;9041;49.718;21.798;2024-02-14T10:24:50;6.43;;;2.00;;
17832;SDS011;9041;49.718;21.798;2024-02-14T10:27:17;4.63;;;1.87;;
17832;SDS011;9041;49.718;21.798;2024-02-14T10:29:44;5.53;;;2.10;;
17832;SDS011;9041;49.718;21.798;2024-02-14T10:32:14;2.43;;;1.50;;
17832;SDS011;9041;49.718;21.798;2024-02-14T10:34:41;2.80;;;1.87;;
17832;SDS011;9041;49.718;21.798;2024-02-14T10:37:10;3.10;;;1.90;;
17832;SDS011;9041;49.718;21.798;2024-02-14T10:39:42;5.83;;;2.60;;
17832;SDS011;9041;49.718;21.798;2024-02-14T10:42:10;4.87;;;2.40;;
17832;SDS011;9041;49.718;21.798;2024-02-14T10:44:37;7.80;;;3.35;;
17832;SDS011;9041;49.718;21.798;2024-02-14T10:47:03;8.82;;;3.20;;
17832;SDS011;9041;49.718;21.798;2024-02-14T10:49:32;4.82;;;2.10;;
17832;SDS011;9041;49.718;21.798;2024-02-14T10:51:59;13.02;;;3.05;;
17832;SDS011;9041;49.718;21.798;2024-02-14T10:54:29;4.53;;;2.30;;
17832;SDS011;9041;49.718;21.798;2024-02-14T10:56:58;13.45;;;3.10;;
17832;SDS011;9041;49.718;21.798;2024-02-14T10:59:32;8.02;;;2.63;;
17832;SDS011;9041;49.718;21.798;2024-02-14T11:01:59;3.72;;;2.15;;
17832;SDS011;9041;49.718;21.798;2024-02-14T11:04:26;6.47;;;2.60;;
17832;SDS011;9041;49.718;21.798;2024-02-14T11:06:54;11.30;;;2.97;;
17832;SDS011;9041;49.718;21.798;2024-02-14T11:09:30;3.10;;;1.95;;
17832;SDS011;9041;49.718;21.798;2024-02-14T11:12:00;3.58;;;2.05;;
17832;SDS011;9041;49.718;21.798;2024-02-14T11:14:29;9.32;;;3.90;;
17832;SDS011;9041;49.718;21.798;2024-02-14T11:16:56;10.45;;;4.15;;
17832;SDS011;9041;49.718;21.798;2024-02-14T11:19:29;6.85;;;2.35;;
17832;SDS011;9041;49.718;21.798;2024-02-14T11:21:58;3.42;;;1.80;;
17832;SDS011;9041;49.718;21.798;2024-02-14T11:24:27;3.90;;;2.00;;
17832;SDS011;9041;49.718;21.798;2024-02-14T11:26:55;4.15;;;2.33;;
17832;SDS011;9041;49.718;21.798;2024-02-14T11:29:29;7.47;;;2.10;;
17832;SDS011;9041;49.718;21.798;2024-02-14T11:31:59;5.40;;;2.08;;
17832;SDS011;9041;49.718;21.798;2024-02-14T11:34:27;8.18;;;2.58;;
17832;SDS011;9041;49.718;21.798;2024-02-14T11:36:58;6.68;;;2.42;;
17832;SDS011;9041;49.718;21.798;2024-02-14T11:39:25;4.43;;;2.35;;
17832;SDS011;9041;49.718;21.798;2024-02-14T11:41:52;4.55;;;2.10;;
17832;SDS011;9041;49.718;21.798;2024-02-14T11:44:18;5.15;;;2.53;;
17832;SDS011;9041;49.718;21.798;2024-02-14T11:46:48;5.95;;;1.98;;
17832;SDS011;9041;49.718;21.798;2024-02-14T11:49:15;6.43;;;2.25;;
17832;SDS011;9041;49.718;21.798;2024-02-14T11:51:42;8.15;;;2.38;;
17832;SDS011;9041;49.718;21.798;2024-02-14T11:54:09;4.32;;;2.38;;
17832;SDS011;9041;49.718;21.798;2024-02-14T11:56:37;3.05;;;1.83;;
17832;SDS011;9041;49.718;21.798;2024-02-14T11:59:04;9.63;;;2.70;;
17832;SDS011;9041;49.718;21.798;2024-02-14T12:01:32;3.20;;;2.00;;
17832;SDS011;9041;49.718;21.798;2024-02-14T12:04:01;5.18;;;2.10;;
17832;SDS011;9041;49.718;21.798;2024-02-14T12:06:30;5.38;;;2.00;;
17832;SDS011;9041;49.718;21.798;2024-02-14T12:08:59;3.80;;;2.30;;
17832;SDS011;9041;49.718;21.798;2024-02-14T12:11:30;6.25;;;2.10;;
17832;SDS011;9041;49.718;21.798;2024-02-14T12:14:00;5.30;;;2.17;;
17832;SDS011;9041;49.718;21.798;2024-02-14T12:16:28;4.65;;;2.47;;
17832;SDS011;9041;49.718;21.798;2024-02-14T12:19:15;7.57;;;2.05;;
17832;SDS011;9041;49.718;21.798;2024-02-14T12:21:42;8.23;;;2.30;;
17832;SDS011;9041;49.718;21.798;2024-02-14T12:24:09;7.15;;;2.47;;
17832;SDS011;9041;49.718;21.798;2024-02-14T12:26:35;4.45;;;2.28;;
17832;SDS011;9041;49.718;21.798;2024-02-14T12:29:02;3.13;;;1.90;;
17832;SDS011;9041;49.718;21.798;2024-02-14T12:31:29;2.85;;;1.88;;
17832;SDS011;9041;49.718;21.798;2024-02-14T12:33:57;4.13;;;2.10;;
17832;SDS011;9041;49.718;21.798;2024-02-14T12:36:26;5.07;;;2.53;;
17832;SDS011;9041;49.718;21.798;2024-02-14T12:38:53;14.85;;;5.38;;
17832;SDS011;9041;49.718;21.798;2024-02-14T12:41:20;13.25;;;4.15;;
17832;SDS011;9041;49.718;21.798;2024-02-14T12:43:48;8.43;;;3.67;;
17832;SDS011;9041;49.718;21.798;2024-02-14T12:46:15;10.27;;;4.60;;
17832;SDS011;9041;49.718;21.798;2024-02-14T12:48:42;7.25;;;3.05;;
17832;SDS011;9041;49.718;21.798;2024-02-14T12:51:09;6.93;;;3.00;;
17832;SDS011;9041;49.718;21.798;2024-02-14T12:53:37;12.45;;;3.22;;
17832;SDS011;9041;49.718;21.798;2024-02-14T12:56:05;8.27;;;3.55;;
17832;SDS011;9041;49.718;21.798;2024-02-14T12:58:32;6.00;;;2.80;;
17832;SDS011;9041;49.718;21.798;2024-02-14T13:00:59;6.50;;;2.70;;
17832;SDS011;9041;49.718;21.798;2024-02-14T13:03:26;9.68;;;3.17;;
17832;SDS011;9041;49.718;21.798;2024-02-14T13:05:53;5.10;;;2.60;;
17832;SDS011;9041;49.718;21.798;2024-02-14T13:08:20;6.10;;;2.00;;
17832;SDS011;9041;49.718;21.798;2024-02-14T13:10:50;7.60;;;2.40;;
17832;SDS011;9041;49.718;21.798;2024-02-14T13:13:16;6.67;;;2.50;;
17832;SDS011;9041;49.718;21.798;2024-02-14T13:15:42;6.47;;;2.93;;
17832;SDS011;9041;49.718;21.798;2024-02-14T13:18:10;5.90;;;2.60;;
17832;SDS011;9041;49.718;21.798;2024-02-14T13:20:36;8.87;;;3.43;;
17832;SDS011;9041;49.718;21.798;2024-02-14T13:23:04;7.20;;;2.70;;
17832;SDS011;9041;49.718;21.798;2024-02-14T13:25:52;5.57;;;3.00;;
17832;SDS011;9041;49.718;21.798;2024-02-14T13:28:19;8.03;;;3.20;;
17832;SDS011;9041;49.718;21.798;2024-02-14T13:30:46;5.47;;;2.27;;
17832;SDS011;9041;49.718;21.798;2024-02-14T13:33:12;7.20;;;2.80;;
17832;SDS011;9041;49.718;21.798;2024-02-14T13:35:39;6.67;;;2.93;;
17832;SDS011;9041;49.718;21.798;2024-02-14T13:38:06;7.47;;;2.90;;
17832;SDS011;9041;49.718;21.798;2024-02-14T13:56:43;9.50;;;2.90;;
17832;SDS011;9041;49.718;21.798;2024-02-14T13:59:10;7.63;;;3.30;;
17832;SDS011;9041;49.718;21.798;2024-02-14T14:01:40;8.67;;;3.10;;
17832;SDS011;9041;49.718;21.798;2024-02-14T14:04:06;6.67;;;3.23;;
17832;SDS011;9041;49.718;21.798;2024-02-14T14:06:33;6.97;;;2.97;;
17832;SDS011;9041;49.718;21.798;2024-02-14T14:09:00;6.27;;;2.90;;
17832;SDS011;9041;49.718;21.798;2024-02-14T14:11:28;6.67;;;2.70;;
17832;SDS011;9041;49.718;21.798;2024-02-14T14:13:56;10.20;;;2.90;;
17832;SDS011;9041;49.718;21.798;2024-02-14T14:16:23;7.33;;;2.80;;
17832;SDS011;9041;49.718;21.798;2024-02-14T14:18:50;4.93;;;2.67;;
17832;SDS011;9041;49.718;21.798;2024-02-14T14:21:17;6.00;;;2.40;;
17832;SDS011;9041;49.718;21.798;2024-02-14T14:23:43;6.33;;;2.67;;
17832;SDS011;9041;49.718;21.798;2024-02-14T14:26:10;4.30;;;2.53;;
17832;SDS011;9041;49.718;21.798;2024-02-14T14:28:38;5.23;;;2.77;;
17832;SDS011;9041;49.718;21.798;2024-02-14T14:31:06;8.13;;;2.83;;
17832;SDS011;9041;49.718;21.798;2024-02-14T14:33:34;5.43;;;2.60;;
17832;SDS011;9041;49.718;21.798;2024-02-14T14:36:00;6.83;;;2.87;;
17832;SDS011;9041;49.718;21.798;2024-02-14T14:38:28;7.63;;;2.60;;
17832;SDS011;9041;49.718;21.798;2024-02-14T14:40:55;7.20;;;2.80;;
17832;SDS011;9041;49.718;21.798;2024-02-14T14:43:22;5.20;;;2.97;;
17832;SDS011;9041;49.718;21.798;2024-02-14T14:45:49;3.87;;;2.70;;
17832;SDS011;9041;49.718;21.798;2024-02-14T14:48:17;4.73;;;2.40;;
17832;SDS011;9041;49.718;21.798;2024-02-14T14:50:43;4.83;;;2.47;;
17832;SDS011;9041;49.718;21.798;2024-02-14T14:53:10;9.37;;;2.93;;
17832;SDS011;9041;49.718;21.798;2024-02-14T14:55:49;5.67;;;2.70;;